Detall de PIREP

Printer-friendly versionPDF version

[2013/01/09 10:48:00]
Flight IATA:CT1005
Pilot Number:042
Company ICAO:CAT
Aircraft Type:B763/F
PAX:120
Departing Airport: EHAM
Destination Airport: LHBP
Alternate Airport:LOWW
Online: VATSIM
Route:ARNEM UL620 BIRKA UZ21 OMELO UL620 KOPIT UM748 RUTOL
Flight Level:F350
No Slew and time accel
No pause
Crash detect
Detect pilot in Cockpit between each 30 and 45 minutes
10:48 Zero fuel Weight: 197001 Lbs, Fuel Weight: 161713 Lbs
10:48 VATSIM:EHAM 091025Z 24011KT 5000 -DZ FEW004 BKN005 BKN006 08/07 Q1019 BECMG 28008KT
10:48 VATSIM:LHBP 091030Z 09005KT 2500 BR OVC001 M03/M03 Q1023 R13L/650162 R13R/650161 NOSIG
10:48 VOICE CATALONIAN/EU TOUR
10:53 Parking Brakes off
11:02 Take-off
11:02 Take off Weight: 356687 Lbs
11:02 Wind: 112º @ 007 Knots Heading: 181º
11:02 POS N52º 18´ 20´´ E004º 46´ 44´´
11:02 Gear Up: 186 Knots
11:02 Flaps:3 at 186 Knots
11:03 Flaps:2 at 209 Knots
11:03 Flaps:1 at 228 Knots
11:03 Flaps:0 at 240 Knots
11:17 Wind:329º@060 Knots Heading: 098º Ground Speed: 491 Knots Altitude 34097 ft
11:17 TOC
11:17 Fuel Weight: 152423 Lb
11:32 Wind:328º@050 Knots Heading: 099º Ground Speed: 484 Knots Altitude 35164 ft
11:47 Wind:311º@032 Knots Heading: 121º Ground Speed: 482 Knots Altitude 35147 ft
12:02 Wind:300º@014 Knots Heading: 136º Ground Speed: 464 Knots Altitude 35203 ft
12:15 TOD
12:15 Fuel Weight: 142242 Lb
12:17 Wind:278º@019 Knots Heading: 134º Ground Speed: 456 Knots Altitude 30524 ft
12:32 Wind:284º@011 Knots Heading: 311º Ground Speed: 255 Knots Altitude 8950 ft
12:35 Flaps:1 at 236 Knots
12:37 Flaps:2 at 212 Knots
12:37 Flaps:3 at 209 Knots
12:40 Gear Down: 194 Knots
12:41 Flaps:4 at 195 Knots
12:41 Flaps:5 at 195 Knots
12:41 Flaps:6 at 194 Knots
12:43 TouchDown:Rate -183 ft/min Speed: 133 Knots
12:43 VATSIM:LHBP 091230Z 08007KT 4500 BR BKN005 OVC011 M03/M03 Q1022 R88/29//95 NOSIG
12:43 Land
12:43 Wind:127º@008 Knots
12:43 Heading: 131º
12:43 Flight Duration: 01:41
12:43 Landing Weight: 336118 Lbs
12:43 POS N47º 26´ 17´´ E019º 14´ 15´´
12:48 Parking brakes on
12:48 Block to Block Duration: 01:56
12:48 Final Fuel: 137094 Lbls
12:48 Spent Fuel: 24618 Lbls
12:48 Flight Length: 697 NM
12:48 TOD Land Length: 140 NM

Exportar CSV

Powered by Drupal - Modified by Danger4k